sensor_id;sensor_type;location;lat;lon;timestamp;pressure;altitude;pressure_sealevel;temperature;humidity
8140;BME280;4111;50.972;7.072;2023-12-04T00:01:23;101086.00;;;0.99;89.69
8140;BME280;4111;50.972;7.072;2023-12-04T00:03:50;101085.63;;;1.03;89.76
8140;BME280;4111;50.972;7.072;2023-12-04T00:06:17;101089.31;;;1.02;89.35
8140;BME280;4111;50.972;7.072;2023-12-04T00:08:43;101085.81;;;1.01;89.24
8140;BME280;4111;50.972;7.072;2023-12-04T00:11:10;101076.94;;;1.01;88.94
8140;BME280;4111;50.972;7.072;2023-12-04T00:13:36;101077.59;;;1.03;88.57
8140;BME280;4111;50.972;7.072;2023-12-04T00:16:03;101077.59;;;1.03;88.82
8140;BME280;4111;50.972;7.072;2023-12-04T00:18:30;101071.09;;;1.05;88.75
8140;BME280;4111;50.972;7.072;2023-12-04T00:20:57;101069.06;;;1.07;88.28
8140;BME280;4111;50.972;7.072;2023-12-04T00:23:23;101059.19;;;1.08;87.92
8140;BME280;4111;50.972;7.072;2023-12-04T00:25:50;101058.50;;;1.14;88.39
8140;BME280;4111;50.972;7.072;2023-12-04T00:28:17;101060.19;;;1.15;87.56
8140;BME280;4111;50.972;7.072;2023-12-04T00:30:44;101046.50;;;1.10;87.39
8140;BME280;4111;50.972;7.072;2023-12-04T00:33:11;101051.19;;;1.08;87.13
8140;BME280;4111;50.972;7.072;2023-12-04T00:35:37;101048.16;;;1.11;87.27
8140;BME280;4111;50.972;7.072;2023-12-04T00:38:04;101043.47;;;1.13;87.27
8140;BME280;4111;50.972;7.072;2023-12-04T00:40:30;101041.44;;;1.15;87.32
8140;BME280;4111;50.972;7.072;2023-12-04T00:42:56;101035.09;;;1.16;87.26
8140;BME280;4111;50.972;7.072;2023-12-04T00:45:23;101029.06;;;1.14;86.47
8140;BME280;4111;50.972;7.072;2023-12-04T00:47:50;101027.22;;;1.14;86.78
8140;BME280;4111;50.972;7.072;2023-12-04T00:50:16;101029.72;;;1.16;86.63
8140;BME280;4111;50.972;7.072;2023-12-04T00:52:43;101029.06;;;1.14;86.00
8140;BME280;4111;50.972;7.072;2023-12-04T00:55:10;101032.72;;;1.21;86.06
8140;BME280;4111;50.972;7.072;2023-12-04T00:57:36;101028.09;;;1.15;85.74
8140;BME280;4111;50.972;7.072;2023-12-04T01:00:03;101012.03;;;1.15;86.17
8140;BME280;4111;50.972;7.072;2023-12-04T01:02:30;101018.56;;;1.12;86.36
8140;BME280;4111;50.972;7.072;2023-12-04T01:04:56;101013.75;;;1.08;85.73
8140;BME280;4111;50.972;7.072;2023-12-04T01:07:23;101006.06;;;1.05;85.90
8140;BME280;4111;50.972;7.072;2023-12-04T01:09:49;101004.25;;;1.05;85.38
8140;BME280;4111;50.972;7.072;2023-12-04T01:12:16;101000.72;;;1.05;85.81
8140;BME280;4111;50.972;7.072;2023-12-04T01:14:42;101000.44;;;0.99;85.33
8140;BME280;4111;50.972;7.072;2023-12-04T01:17:09;101006.44;;;1.02;85.37
8140;BME280;4111;50.972;7.072;2023-12-04T01:19:35;101002.34;;;1.14;85.53
8140;BME280;4111;50.972;7.072;2023-12-04T01:22:02;100992.66;;;1.13;85.51
8140;BME280;4111;50.972;7.072;2023-12-04T01:24:28;100992.00;;;1.11;85.47
8140;BME280;4111;50.972;7.072;2023-12-04T01:26:55;100987.00;;;1.08;85.51
8140;BME280;4111;50.972;7.072;2023-12-04T01:29:21;101000.72;;;1.05;85.13
8140;BME280;4111;50.972;7.072;2023-12-04T01:31:48;100995.38;;;1.05;84.58
8140;BME280;4111;50.972;7.072;2023-12-04T01:34:14;100989.19;;;1.04;84.37
8140;BME280;4111;50.972;7.072;2023-12-04T01:36:41;100985.03;;;1.02;84.64
8140;BME280;4111;50.972;7.072;2023-12-04T01:39:07;100987.06;;;0.99;84.76
8140;BME280;4111;50.972;7.072;2023-12-04T01:41:34;100984.38;;;0.99;84.89
8140;BME280;4111;50.972;7.072;2023-12-04T01:44:00;100981.34;;;1.03;84.58
8140;BME280;4111;50.972;7.072;2023-12-04T01:46:27;100981.34;;;1.03;84.25
8140;BME280;4111;50.972;7.072;2023-12-04T01:48:54;100978.72;;;0.94;84.32
8140;BME280;4111;50.972;7.072;2023-12-04T01:51:22;100973.38;;;0.94;84.45
8140;BME280;4111;50.972;7.072;2023-12-04T01:53:49;100977.75;;;0.95;84.11
8140;BME280;4111;50.972;7.072;2023-12-04T01:56:17;100978.66;;;1.03;84.21
8140;BME280;4111;50.972;7.072;2023-12-04T01:58:43;100969.00;;;1.02;84.42
8140;BME280;4111;50.972;7.072;2023-12-04T02:01:11;100961.16;;;1.00;84.30
8140;BME280;4111;50.972;7.072;2023-12-04T02:03:38;100962.81;;;1.01;84.31
8140;BME280;4111;50.972;7.072;2023-12-04T02:06:07;100961.97;;;1.01;83.87
8140;BME280;4111;50.972;7.072;2023-12-04T02:08:34;100962.34;;;0.97;83.64
8140;BME280;4111;50.972;7.072;2023-12-04T02:11:02;100955.31;;;0.96;83.48
8140;BME280;4111;50.972;7.072;2023-12-04T02:13:28;100957.66;;;0.99;83.99
8140;BME280;4111;50.972;7.072;2023-12-04T02:15:57;100950.28;;;1.02;84.06
8140;BME280;4111;50.972;7.072;2023-12-04T02:18:25;100954.59;;;1.03;83.79
8140;BME280;4111;50.972;7.072;2023-12-04T02:20:53;100960.16;;;1.01;83.66
8140;BME280;4111;50.972;7.072;2023-12-04T02:23:19;100951.75;;;1.04;83.47
8140;BME280;4111;50.972;7.072;2023-12-04T02:25:46;100946.53;;;1.11;83.20
8140;BME280;4111;50.972;7.072;2023-12-04T02:28:14;100950.38;;;1.08;83.18
8140;BME280;4111;50.972;7.072;2023-12-04T02:30:43;100950.22;;;1.10;83.57
8140;BME280;4111;50.972;7.072;2023-12-04T02:33:11;100951.03;;;1.10;83.21
8140;BME280;4111;50.972;7.072;2023-12-04T02:35:40;100943.66;;;1.12;82.84
8140;BME280;4111;50.972;7.072;2023-12-04T02:38:08;100937.50;;;1.12;82.75
8140;BME280;4111;50.972;7.072;2023-12-04T02:40:34;100927.75;;;1.19;83.05
8140;BME280;4111;50.972;7.072;2023-12-04T02:43:01;100920.06;;;1.16;82.70
8140;BME280;4111;50.972;7.072;2023-12-04T02:45:27;100914.06;;;1.14;82.52
8140;BME280;4111;50.972;7.072;2023-12-04T02:47:54;100912.44;;;1.13;82.66
8140;BME280;4111;50.972;7.072;2023-12-04T02:50:20;100908.06;;;1.12;82.43
8140;BME280;4111;50.972;7.072;2023-12-04T02:52:47;100897.38;;;1.12;82.74
8140;BME280;4111;50.972;7.072;2023-12-04T02:55:13;100900.06;;;1.12;82.20
8140;BME280;4111;50.972;7.072;2023-12-04T02:57:39;100916.75;;;1.14;82.27
8140;BME280;4111;50.972;7.072;2023-12-04T03:00:06;100901.34;;;1.16;81.98
8140;BME280;4111;50.972;7.072;2023-12-04T03:02:33;100897.03;;;1.15;81.99
8140;BME280;4111;50.972;7.072;2023-12-04T03:05:00;100893.34;;;1.16;81.47
8140;BME280;4111;50.972;7.072;2023-12-04T03:07:26;100891.31;;;1.18;80.85
8140;BME280;4111;50.972;7.072;2023-12-04T03:09:53;100890.00;;;1.14;80.87
8140;BME280;4111;50.972;7.072;2023-12-04T03:12:19;100886.69;;;1.12;80.49
8140;BME280;4111;50.972;7.072;2023-12-04T03:14:46;100875.50;;;1.08;80.64
8140;BME280;4111;50.972;7.072;2023-12-04T03:17:12;100885.03;;;1.11;80.45
8140;BME280;4111;50.972;7.072;2023-12-04T03:19:39;100882.81;;;1.14;80.50
8140;BME280;4111;50.972;7.072;2023-12-04T03:22:05;100877.00;;;1.11;80.27
8140;BME280;4111;50.972;7.072;2023-12-04T03:24:32;100867.50;;;1.08;79.53
8140;BME280;4111;50.972;7.072;2023-12-04T03:26:58;100878.66;;;1.12;79.15
8140;BME280;4111;50.972;7.072;2023-12-04T03:29:25;100866.03;;;1.06;79.54
8140;BME280;4111;50.972;7.072;2023-12-04T03:31:51;100869.44;;;1.14;79.59
8140;BME280;4111;50.972;7.072;2023-12-04T03:34:17;100867.22;;;1.18;79.10
8140;BME280;4111;50.972;7.072;2023-12-04T03:36:44;100870.38;;;1.22;79.22
8140;BME280;4111;50.972;7.072;2023-12-04T03:39:10;100856.66;;;1.25;79.04
8140;BME280;4111;50.972;7.072;2023-12-04T03:41:37;100858.22;;;1.19;78.81
8140;BME280;4111;50.972;7.072;2023-12-04T03:44:03;100859.03;;;1.19;78.69
8140;BME280;4111;50.972;7.072;2023-12-04T03:46:30;100862.19;;;1.23;78.92
8140;BME280;4111;50.972;7.072;2023-12-04T03:48:56;100850.44;;;1.24;78.60
8140;BME280;4111;50.972;7.072;2023-12-04T03:51:23;100847.13;;;1.22;78.41
8140;BME280;4111;50.972;7.072;2023-12-04T03:53:49;100853.69;;;1.19;77.89
8140;BME280;4111;50.972;7.072;2023-12-04T03:56:15;100846.22;;;1.15;77.94
8140;BME280;4111;50.972;7.072;2023-12-04T03:58:42;100838.19;;;1.15;77.88
8140;BME280;4111;50.972;7.072;2023-12-04T04:01:08;100836.69;;;1.12;77.70
8140;BME280;4111;50.972;7.072;2023-12-04T04:03:35;100837.16;;;1.16;77.44
8140;BME280;4111;50.972;7.072;2023-12-04T04:06:01;100840.13;;;1.21;77.65
8140;BME280;4111;50.972;7.072;2023-12-04T04:08:28;100841.69;;;1.15;77.50
8140;BME280;4111;50.972;7.072;2023-12-04T04:10:55;100848.50;;;1.18;77.92
8140;BME280;4111;50.972;7.072;2023-12-04T04:13:21;100837.00;;;1.17;77.72
8140;BME280;4111;50.972;7.072;2023-12-04T04:15:47;100832.63;;;1.16;77.74
8140;BME280;4111;50.972;7.072;2023-12-04T04:18:14;100831.28;;;1.21;78.40
8140;BME280;4111;50.972;7.072;2023-12-04T04:20:40;100824.44;;;1.18;77.74
8140;BME280;4111;50.972;7.072;2023-12-04T04:23:07;100824.19;;;1.13;77.78
8140;BME280;4111;50.972;7.072;2023-12-04T04:25:33;100816.16;;;1.13;77.95
8140;BME280;4111;50.972;7.072;2023-12-04T04:28:00;100813.38;;;1.21;78.57
8140;BME280;4111;50.972;7.072;2023-12-04T04:30:26;100804.34;;;1.22;78.15
8140;BME280;4111;50.972;7.072;2023-12-04T04:32:52;100813.38;;;1.21;78.48
8140;BME280;4111;50.972;7.072;2023-12-04T04:35:19;100811.38;;;1.23;78.51
8140;BME280;4111;50.972;7.072;2023-12-04T04:37:45;100802.78;;;1.13;78.61
8140;BME280;4111;50.972;7.072;2023-12-04T04:40:14;100805.47;;;1.13;78.49
8140;BME280;4111;50.972;7.072;2023-12-04T04:42:40;100798.91;;;1.15;78.62
8140;BME280;4111;50.972;7.072;2023-12-04T04:45:08;100798.91;;;1.15;78.33
8140;BME280;4111;50.972;7.072;2023-12-04T04:47:35;100796.41;;;1.14;78.43
8140;BME280;4111;50.972;7.072;2023-12-04T04:50:02;100798.59;;;1.10;78.46
8140;BME280;4111;50.972;7.072;2023-12-04T04:52:28;100798.44;;;1.12;78.72
8140;BME280;4111;50.972;7.072;2023-12-04T04:54:58;100796.78;;;1.11;78.69
8140;BME280;4111;50.972;7.072;2023-12-04T04:57:24;100798.91;;;1.15;79.24
8140;BME280;4111;50.972;7.072;2023-12-04T04:59:51;100799.00;;;1.22;79.51
8140;BME280;4111;50.972;7.072;2023-12-04T05:02:17;100800.84;;;1.22;79.18
8140;BME280;4111;50.972;7.072;2023-12-04T05:04:44;100802.56;;;1.14;78.79
8140;BME280;4111;50.972;7.072;2023-12-04T05:07:10;100794.75;;;1.13;78.42
8140;BME280;4111;50.972;7.072;2023-12-04T05:09:37;100790.59;;;1.10;78.75
8140;BME280;4111;50.972;7.072;2023-12-04T05:12:03;100790.16;;;1.07;79.04
8140;BME280;4111;50.972;7.072;2023-12-04T05:14:30;100788.66;;;1.04;78.81
8140;BME280;4111;50.972;7.072;2023-12-04T05:16:56;100785.78;;;1.06;79.05
8140;BME280;4111;50.972;7.072;2023-12-04T05:19:23;100786.09;;;1.11;78.89
8140;BME280;4111;50.972;7.072;2023-12-04T05:21:49;100777.78;;;1.06;78.77
8140;BME280;4111;50.972;7.072;2023-12-04T05:24:16;100780.44;;;1.06;79.11
8140;BME280;4111;50.972;7.072;2023-12-04T05:26:43;100783.47;;;1.03;78.88
8140;BME280;4111;50.972;7.072;2023-12-04T05:29:09;100778.78;;;1.05;79.00
8140;BME280;4111;50.972;7.072;2023-12-04T05:31:36;100775.84;;;0.99;79.55
8140;BME280;4111;50.972;7.072;2023-12-04T05:34:03;100774.47;;;1.04;79.56
8140;BME280;4111;50.972;7.072;2023-12-04T05:36:29;100767.81;;;0.99;79.55
8140;BME280;4111;50.972;7.072;2023-12-04T05:38:56;100766.13;;;0.98;79.05
8140;BME280;4111;50.972;7.072;2023-12-04T05:41:26;100758.97;;;0.99;79.48
8140;BME280;4111;50.972;7.072;2023-12-04T05:43:53;100763.47;;;0.98;79.70
8140;BME280;4111;50.972;7.072;2023-12-04T05:46:19;100755.09;;;1.02;79.76
8140;BME280;4111;50.972;7.072;2023-12-04T05:48:47;100763.84;;;0.95;79.79
8140;BME280;4111;50.972;7.072;2023-12-04T05:51:14;100745.03;;;1.04;79.68
8140;BME280;4111;50.972;7.072;2023-12-04T05:53:41;100749.91;;;1.00;79.49
8140;BME280;4111;50.972;7.072;2023-12-04T05:56:08;100746.03;;;1.03;79.74
8140;BME280;4111;50.972;7.072;2023-12-04T05:58:35;100746.78;;;0.96;79.92
8140;BME280;4111;50.972;7.072;2023-12-04T06:01:02;100758.50;;;0.95;79.63
8140;BME280;4111;50.972;7.072;2023-12-04T06:03:28;100741.91;;;1.00;80.00
8140;BME280;4111;50.972;7.072;2023-12-04T06:05:55;100745.97;;;0.96;80.02
8140;BME280;4111;50.972;7.072;2023-12-04T06:08:25;100745.31;;;0.94;80.36
8140;BME280;4111;50.972;7.072;2023-12-04T06:10:51;100747.69;;;0.89;80.10
8140;BME280;4111;50.972;7.072;2023-12-04T06:13:17;100754.06;;;0.88;80.36
8140;BME280;4111;50.972;7.072;2023-12-04T06:15:44;100742.56;;;0.87;80.43
8140;BME280;4111;50.972;7.072;2023-12-04T06:18:11;100739.59;;;0.82;80.44
8140;BME280;4111;50.972;7.072;2023-12-04T06:20:37;100733.25;;;0.83;80.60
8140;BME280;4111;50.972;7.072;2023-12-04T06:23:04;100736.72;;;0.84;80.41
8140;BME280;4111;50.972;7.072;2023-12-04T06:25:30;100732.59;;;0.81;80.30
8140;BME280;4111;50.972;7.072;2023-12-04T06:27:57;100729.28;;;0.79;80.18
8140;BME280;4111;50.972;7.072;2023-12-04T06:30:24;100724.38;;;0.83;80.19
8140;BME280;4111;50.972;7.072;2023-12-04T06:32:51;100719.03;;;0.83;80.45
8140;BME280;4111;50.972;7.072;2023-12-04T06:35:18;100718.59;;;0.79;80.61
8140;BME280;4111;50.972;7.072;2023-12-04T06:37:48;100716.09;;;0.77;80.13
8140;BME280;4111;50.972;7.072;2023-12-04T06:40:15;100716.72;;;0.79;80.57
8140;BME280;4111;50.972;7.072;2023-12-04T06:42:42;100705.47;;;0.84;80.18
8140;BME280;4111;50.972;7.072;2023-12-04T06:45:08;100704.66;;;0.84;80.25
8140;BME280;4111;50.972;7.072;2023-12-04T06:47:36;100687.81;;;0.83;80.04
8140;BME280;4111;50.972;7.072;2023-12-04T06:50:03;100684.09;;;0.84;80.44
8140;BME280;4111;50.972;7.072;2023-12-04T06:52:30;100673.22;;;0.86;79.93
8140;BME280;4111;50.972;7.072;2023-12-04T06:54:56;100683.75;;;0.87;79.61
8140;BME280;4111;50.972;7.072;2023-12-04T06:57:23;100658.31;;;0.91;79.85
8140;BME280;4111;50.972;7.072;2023-12-04T06:59:49;100653.69;;;0.85;79.43
8140;BME280;4111;50.972;7.072;2023-12-04T07:02:15;100637.66;;;0.85;80.10
8140;BME280;4111;50.972;7.072;2023-12-04T07:04:42;100634.25;;;0.91;79.54
8140;BME280;4111;50.972;7.072;2023-12-04T07:07:08;100634.06;;;0.93;79.65
8140;BME280;4111;50.972;7.072;2023-12-04T07:09:35;100625.84;;;0.94;79.01
8140;BME280;4111;50.972;7.072;2023-12-04T07:12:02;100629.78;;;0.98;79.09
8140;BME280;4111;50.972;7.072;2023-12-04T07:14:29;100618.44;;;0.96;78.58
8140;BME280;4111;50.972;7.072;2023-12-04T07:16:55;100624.72;;;1.04;78.24
8140;BME280;4111;50.972;7.072;2023-12-04T07:19:22;100646.66;;;1.14;78.37
8140;BME280;4111;50.972;7.072;2023-12-04T07:21:49;100637.63;;;1.15;77.98
8140;BME280;4111;50.972;7.072;2023-12-04T07:24:16;100632.06;;;1.16;77.63
8140;BME280;4111;50.972;7.072;2023-12-04T07:26:43;100631.53;;;1.21;77.64
8140;BME280;4111;50.972;7.072;2023-12-04T07:29:10;100627.19;;;1.20;76.63
8140;BME280;4111;50.972;7.072;2023-12-04T07:31:37;100622.47;;;1.22;77.03
8140;BME280;4111;50.972;7.072;2023-12-04T07:34:04;100617.75;;;1.24;76.58
8140;BME280;4111;50.972;7.072;2023-12-04T07:36:30;100617.97;;;1.23;76.45
8140;BME280;4111;50.972;7.072;2023-12-04T07:38:57;100618.41;;;1.26;75.94
8140;BME280;4111;50.972;7.072;2023-12-04T07:41:23;100615.63;;;1.34;76.19
8140;BME280;4111;50.972;7.072;2023-12-04T07:43:50;100624.28;;;1.36;75.87
8140;BME280;4111;50.972;7.072;2023-12-04T07:46:16;100627.63;;;1.38;75.26
8140;BME280;4111;50.972;7.072;2023-12-04T07:48:43;100623.91;;;1.39;75.28
8140;BME280;4111;50.972;7.072;2023-12-04T07:51:12;100628.03;;;1.42;75.07
8140;BME280;4111;50.972;7.072;2023-12-04T07:53:39;100620.66;;;1.44;75.34
8140;BME280;4111;50.972;7.072;2023-12-04T07:56:06;100632.03;;;1.46;75.05
8140;BME280;4111;50.972;7.072;2023-12-04T07:58:33;100623.13;;;1.46;74.62
8140;BME280;4111;50.972;7.072;2023-12-04T08:00:59;100626.84;;;1.45;74.32
8140;BME280;4111;50.972;7.072;2023-12-04T08:03:26;100628.94;;;1.49;74.50
8140;BME280;4111;50.972;7.072;2023-12-04T08:05:53;100617.97;;;1.44;74.42
8140;BME280;4111;50.972;7.072;2023-12-04T08:08:20;100624.63;;;1.48;74.50
8140;BME280;4111;50.972;7.072;2023-12-04T08:10:47;100623.78;;;1.48;74.21
8140;BME280;4111;50.972;7.072;2023-12-04T08:13:13;100624.53;;;1.42;73.83
8140;BME280;4111;50.972;7.072;2023-12-04T08:15:40;100621.09;;;1.48;74.13
8140;BME280;4111;50.972;7.072;2023-12-04T08:18:07;100633.47;;;1.49;74.27
8140;BME280;4111;50.972;7.072;2023-12-04T08:20:33;100626.84;;;1.45;74.37
8140;BME280;4111;50.972;7.072;2023-12-04T08:23:06;100634.31;;;1.49;74.55
8140;BME280;4111;50.972;7.072;2023-12-04T08:25:33;100626.09;;;1.51;74.61
8140;BME280;4111;50.972;7.072;2023-12-04T08:27:59;100617.34;;;1.42;74.36
8140;BME280;4111;50.972;7.072;2023-12-04T08:30:26;100616.59;;;1.48;74.56
8140;BME280;4111;50.972;7.072;2023-12-04T08:32:53;100624.81;;;1.47;74.81
8140;BME280;4111;50.972;7.072;2023-12-04T08:35:21;100605.50;;;1.51;74.75
8140;BME280;4111;50.972;7.072;2023-12-04T08:37:48;100601.75;;;1.46;74.80
8140;BME280;4111;50.972;7.072;2023-12-04T08:40:15;100595.84;;;1.50;74.77
8140;BME280;4111;50.972;7.072;2023-12-04T08:42:43;100592.31;;;1.50;74.96
8140;BME280;4111;50.972;7.072;2023-12-04T08:45:10;100595.19;;;1.48;74.56
8140;BME280;4111;50.972;7.072;2023-12-04T08:47:40;100595.63;;;1.52;75.03
8140;BME280;4111;50.972;7.072;2023-12-04T08:50:07;100591.53;;;1.56;74.89
8140;BME280;4111;50.972;7.072;2023-12-04T08:52:33;100590.09;;;1.53;74.94
8140;BME280;4111;50.972;7.072;2023-12-04T08:55:00;100583.78;;;1.61;74.85
8140;BME280;4111;50.972;7.072;2023-12-04T08:57:27;100584.59;;;1.62;75.00
8140;BME280;4111;50.972;7.072;2023-12-04T08:59:53;100574.59;;;1.70;75.43
8140;BME280;4111;50.972;7.072;2023-12-04T09:02:20;100577.38;;;1.84;75.67
8140;BME280;4111;50.972;7.072;2023-12-04T09:04:47;100581.22;;;1.96;76.12
8140;BME280;4111;50.972;7.072;2023-12-04T09:07:14;100576.72;;;2.03;75.45
8140;BME280;4111;50.972;7.072;2023-12-04T09:09:43;100583.34;;;2.07;74.55
8140;BME280;4111;50.972;7.072;2023-12-04T09:12:10;100568.00;;;1.94;73.81
8140;BME280;4111;50.972;7.072;2023-12-04T09:14:37;100579.44;;;1.82;72.84
8140;BME280;4111;50.972;7.072;2023-12-04T09:17:03;100582.50;;;1.78;73.56
8140;BME280;4111;50.972;7.072;2023-12-04T09:19:30;100568.84;;;1.73;73.43
8140;BME280;4111;50.972;7.072;2023-12-04T09:21:56;100563.75;;;1.78;73.62
8140;BME280;4111;50.972;7.072;2023-12-04T09:24:38;100559.69;;;1.83;73.19
8140;BME280;4111;50.972;7.072;2023-12-04T09:27:04;100547.75;;;1.85;73.44
8140;BME280;4111;50.972;7.072;2023-12-04T09:29:33;100552.53;;;1.90;73.15
8140;BME280;4111;50.972;7.072;2023-12-04T09:32:00;100544.09;;;1.93;73.28
8140;BME280;4111;50.972;7.072;2023-12-04T09:34:27;100549.44;;;1.93;72.87
8140;BME280;4111;50.972;7.072;2023-12-04T09:37:00;100543.09;;;1.94;72.99
8140;BME280;4111;50.972;7.072;2023-12-04T09:39:36;100535.06;;;1.94;72.64
8140;BME280;4111;50.972;7.072;2023-12-04T09:42:03;100532.16;;;1.95;72.67
8140;BME280;4111;50.972;7.072;2023-12-04T09:44:30;100530.97;;;1.98;72.80
8140;BME280;4111;50.972;7.072;2023-12-04T09:46:58;100514.28;;;1.96;72.73
8140;BME280;4111;50.972;7.072;2023-12-04T09:49:28;100514.09;;;1.97;72.30
8140;BME280;4111;50.972;7.072;2023-12-04T09:51:57;100509.75;;;1.96;72.56
8140;BME280;4111;50.972;7.072;2023-12-04T09:54:24;100508.31;;;2.01;72.47
8140;BME280;4111;50.972;7.072;2023-12-04T09:56:52;100509.59;;;2.05;72.31
8140;BME280;4111;50.972;7.072;2023-12-04T09:59:23;100503.84;;;2.08;72.48
8140;BME280;4111;50.972;7.072;2023-12-04T10:01:51;100494.31;;;2.05;72.26
8140;BME280;4111;50.972;7.072;2023-12-04T10:04:19;100492.16;;;2.15;72.27
8140;BME280;4111;50.972;7.072;2023-12-04T10:06:45;100491.13;;;2.23;72.34
8140;BME280;4111;50.972;7.072;2023-12-04T10:09:12;100488.25;;;2.25;72.29
8140;BME280;4111;50.972;7.072;2023-12-04T10:11:41;100491.34;;;2.22;71.86
8140;BME280;4111;50.972;7.072;2023-12-04T10:14:21;100480.06;;;2.33;72.10
8140;BME280;4111;50.972;7.072;2023-12-04T10:16:48;100476.53;;;2.26;71.54
8140;BME280;4111;50.972;7.072;2023-12-04T10:21:49;100473.44;;;2.22;71.42
8140;BME280;4111;50.972;7.072;2023-12-04T10:24:32;100478.81;;;2.29;71.40
8140;BME280;4111;50.972;7.072;2023-12-04T10:27:08;100474.50;;;2.28;71.56
8140;BME280;4111;50.972;7.072;2023-12-04T10:29:45;100475.50;;;2.27;71.34
8140;BME280;4111;50.972;7.072;2023-12-04T10:32:13;100468.72;;;2.31;71.65
8140;BME280;4111;50.972;7.072;2023-12-04T10:34:43;100451.63;;;2.32;71.72
8140;BME280;4111;50.972;7.072;2023-12-04T10:37:09;100450.41;;;2.34;71.88
8140;BME280;4111;50.972;7.072;2023-12-04T10:53:30;100424.41;;;2.35;72.65
8140;BME280;4111;50.972;7.072;2023-12-04T10:55:59;100426.88;;;2.30;72.85
8140;BME280;4111;50.972;7.072;2023-12-04T10:58:28;100416.97;;;2.24;73.68
8140;BME280;4111;50.972;7.072;2023-12-04T11:00:56;100422.28;;;2.17;74.40
8140;BME280;4111;50.972;7.072;2023-12-04T11:03:47;100427.44;;;2.18;74.86
8140;BME280;4111;50.972;7.072;2023-12-04T11:06:19;100423.94;;;2.11;75.90
8140;BME280;4111;50.972;7.072;2023-12-04T11:08:48;100402.50;;;2.11;76.04
8140;BME280;4111;50.972;7.072;2023-12-04T11:11:21;100413.41;;;2.10;76.77
8140;BME280;4111;50.972;7.072;2023-12-04T11:13:53;100408.41;;;2.00;76.96
8140;BME280;4111;50.972;7.072;2023-12-04T11:16:33;100411.47;;;1.97;77.95
8140;BME280;4111;50.972;7.072;2023-12-04T11:19:14;100413.59;;;2.02;78.24
8140;BME280;4111;50.972;7.072;2023-12-04T11:21:45;100402.81;;;1.95;78.54
8140;BME280;4111;50.972;7.072;2023-12-04T11:24:14;100400.56;;;1.92;79.02
8140;BME280;4111;50.972;7.072;2023-12-04T11:26:42;100406.53;;;1.94;79.33
8140;BME280;4111;50.972;7.072;2023-12-04T11:29:13;100395.41;;;1.90;79.77
8140;BME280;4111;50.972;7.072;2023-12-04T11:31:40;100393.78;;;1.96;79.83
8140;BME280;4111;50.972;7.072;2023-12-04T11:34:08;100386.75;;;1.95;80.74
8140;BME280;4111;50.972;7.072;2023-12-04T11:36:36;100376.28;;;2.00;81.79
8140;BME280;4111;50.972;7.072;2023-12-04T11:39:02;100369.91;;;2.01;81.89
8140;BME280;4111;50.972;7.072;2023-12-04T11:41:30;100367.81;;;1.90;82.95
8140;BME280;4111;50.972;7.072;2023-12-04T11:43:57;100365.75;;;1.92;83.95
8140;BME280;4111;50.972;7.072;2023-12-04T11:46:26;100351.31;;;1.93;84.66
8140;BME280;4111;50.972;7.072;2023-12-04T11:48:57;100347.41;;;1.95;84.57
8140;BME280;4111;50.972;7.072;2023-12-04T11:54:17;100330.72;;;1.93;85.95
8140;BME280;4111;50.972;7.072;2023-12-04T11:59:44;100330.09;;;1.85;87.25
8140;BME280;4111;50.972;7.072;2023-12-04T12:02:15;100323.66;;;1.72;88.44
8140;BME280;4111;50.972;7.072;2023-12-04T12:04:42;100314.19;;;1.76;89.01
8140;BME280;4111;50.972;7.072;2023-12-04T12:07:16;100304.47;;;1.69;89.89
8140;BME280;4111;50.972;7.072;2023-12-04T12:09:42;100292.53;;;1.71;90.79
8140;BME280;4111;50.972;7.072;2023-12-04T12:12:15;100291.16;;;1.82;91.21
8140;BME280;4111;50.972;7.072;2023-12-04T12:18:44;100280.41;;;1.75;92.47
8140;BME280;4111;50.972;7.072;2023-12-04T12:21:10;100276.72;;;1.76;92.73
8140;BME280;4111;50.972;7.072;2023-12-04T12:23:46;100278.94;;;1.66;93.13
8140;BME280;4111;50.972;7.072;2023-12-04T12:26:12;100272.34;;;1.62;93.41
8140;BME280;4111;50.972;7.072;2023-12-04T12:28:39;100267.63;;;1.71;93.91
8140;BME280;4111;50.972;7.072;2023-12-04T12:31:06;100275.28;;;1.74;93.94
8140;BME280;4111;50.972;7.072;2023-12-04T12:33:32;100254.03;;;1.66;94.22
8140;BME280;4111;50.972;7.072;2023-12-04T12:35:59;100250.75;;;1.70;94.37
8140;BME280;4111;50.972;7.072;2023-12-04T12:38:30;100256.91;;;1.64;95.38
8140;BME280;4111;50.972;7.072;2023-12-04T12:41:01;100240.00;;;1.64;95.75
8140;BME280;4111;50.972;7.072;2023-12-04T12:43:28;100241.25;;;1.61;96.49
8140;BME280;4111;50.972;7.072;2023-12-04T12:45:54;100241.00;;;1.56;97.23
8140;BME280;4111;50.972;7.072;2023-12-04T12:48:21;100227.47;;;1.64;97.12
8140;BME280;4111;50.972;7.072;2023-12-04T12:50:47;100231.38;;;1.62;97.85
8140;BME280;4111;50.972;7.072;2023-12-04T12:53:14;100228.50;;;1.63;98.05
8140;BME280;4111;50.972;7.072;2023-12-04T12:55:41;100218.59;;;1.64;98.38
8140;BME280;4111;50.972;7.072;2023-12-04T12:58:10;100223.56;;;1.60;99.20
8140;BME280;4111;50.972;7.072;2023-12-04T13:00:40;100210.63;;;1.70;99.58
8140;BME280;4111;50.972;7.072;2023-12-04T13:03:16;100209.16;;;1.68;99.29
8140;BME280;4111;50.972;7.072;2023-12-04T13:05:43;100202.16;;;1.67;100.00
8140;BME280;4111;50.972;7.072;2023-12-04T13:08:11;100192.28;;;1.67;99.97
8140;BME280;4111;50.972;7.072;2023-12-04T13:10:43;100191.88;;;1.70;100.00
8140;BME280;4111;50.972;7.072;2023-12-04T13:13:13;100185.28;;;1.66;100.00
8140;BME280;4111;50.972;7.072;2023-12-04T13:15:41;100182.19;;;1.69;100.00
8140;BME280;4111;50.972;7.072;2023-12-04T13:18:09;100176.63;;;1.64;100.00
8140;BME280;4111;50.972;7.072;2023-12-04T13:20:35;100173.97;;;1.71;100.00
8140;BME280;4111;50.972;7.072;2023-12-04T13:23:02;100181.19;;;1.70;100.00
8140;BME280;4111;50.972;7.072;2023-12-04T13:25:28;100162.63;;;1.69;100.00
8140;BME280;4111;50.972;7.072;2023-12-04T13:27:56;100163.69;;;1.74;100.00
8140;BME280;4111;50.972;7.072;2023-12-04T13:30:22;100163.06;;;1.79;100.00
8140;BME280;4111;50.972;7.072;2023-12-04T13:32:49;100156.47;;;1.82;100.00
8140;BME280;4111;50.972;7.072;2023-12-04T13:35:17;100145.38;;;1.85;100.00
8140;BME280;4111;50.972;7.072;2023-12-04T13:37:44;100137.75;;;1.82;100.00
8140;BME280;4111;50.972;7.072;2023-12-04T13:40:11;100139.41;;;1.83;100.00
8140;BME280;4111;50.972;7.072;2023-12-04T13:42:43;100133.00;;;1.84;100.00
8140;BME280;4111;50.972;7.072;2023-12-04T13:45:28;100133.44;;;1.87;100.00
8140;BME280;4111;50.972;7.072;2023-12-04T13:47:54;100117.38;;;1.81;100.00
8140;BME280;4111;50.972;7.072;2023-12-04T13:50:21;100113.44;;;1.83;99.54